Jacksonville, IL (62650)

7:37 PM CST on January 23, 2017 (GMT -0600)
Book Lane | | Change Station
Active Advisory: Flood Warning

Elev 663 ft 39.73 °N, 90.26 °W | Updated 23 seconds ago

Overcast
Overcast
38.1 °F
Feels Like 38 °F
N
0.9
Wind Variable Wind from NW
Gusts 3.6 mph

Today
High -- | Low -- °F
--% Chance of Precip.
Yesterday
High -- | Low -- °F
Precip. -- in
Pressure 29.86 in
Visibility 10.0 miles
Clouds Overcast 1700 ft
Windchill 38 °F
Dew Point 22 °F
Humidity 53%
Rainfall 0.00 in
Snow Depth Not available.
7:15 AM 5:10 PM
Waning Crescent, 15% visible
METAR KIJX 240115Z AUTO 29006KT 10SM OVC017 03/00 A2986 RMK AO2 T00310002
Pressure 29.86 in
Visibility 10.0 miles
Clouds Overcast 1700 ft
Windchill 38 °F
Dew Point 22 °F
Humidity 53%
Rainfall 0.00 in
Snow Depth Not available.
7:15 AM 5:10 PM
Waning Crescent, 15% visible
METAR KIJX 240115Z AUTO 29006KT 10SM OVC017 03/00 A2986 RMK AO2 T00310002

Get Your Daily Forecast Email!

Thanks for signing up!

Be on the lookout for a verification email in your inbox.

You'll start receiving the daily forecast at 8 AM.

×

10-Day Weather Forecast

Almanac

Astronomy

Jan. 23, 2017 Rise Set
Actual Time
Civil Twilight
Nautical Twilight
Astronomical Twilight
Moon
Length of Visible Light
Length of Day
Tomorrow will be .
, % of the Moon is Illuminated

Today's Extremes

State Highs State Lows

Community

WunderPhotos

Upload Photos

1,962,540 photos uploaded!

WunderBlog® & News

Nearby

Air Quality

  Air Quality AQ Index Pollutant
Not available.

Snow Depth

Station Depth Elevation

Earthquake Activity

City Distance Mag. Time & Date
Minimum magnitude displayed is 2.5.

Coastal Water Temperatures

Place Temperature

Stations

Nearby Weather Stations

Station Location Temp. Windchill Dew Point Humidity Wind Precip. Elev Updated Type
                   

Watches & Warnings

Flood Warning
Issued: 12:23 PM CST Jan. 23, 2017 – National Weather Service

The Flood Warning continues for
the Illinois River at Beardstown.
* From Tuesday afternoon until further notice.
* At 1145 am Monday the stage was 13.6 feet.
* Flood stage is 14.0 feet.
* Minor flooding is forecast.
* Forecast... rise above flood stage by tomorrow afternoon and
continue to rise to near 15.1 feet by Friday evening.
* Impact... at 14.4 feet... seepage problems begin in the Coal Creek
drainage and levee district.



                  Fld observed forecast 6am
location stg stg day time Tue Wed Thu

Illinois River
Beardstown 14 13.6 Mon 12 PM 13.9 14.3 14.7



Lat... Lon 4018 9023 4012 9017 4008 9037 3999 9046
      3999 9058 4015 9043